Aviation Digital Data Service (ADDS)

Output produced by METARs form (1111 UTC 02 March 2015)
found at http://www.aviationweather.gov/adds/metars/
 
KSBY 021054Z 28005KT 1/2SM FG VV002 02/00 A3012 RMK AO2 SLP201 T00170000
KSBY 021103Z 0211/0306 27005KT 1/2SM FG VV002 
     FM021400 28008KT 4SM BR OVC007 
     FM021500 32013G20KT P6SM BKN050 
     FM021800 31011KT P6SM SCT250